CheckWX is a tool to help pilots better visualize weather data.  It is not intended as a substitute for an official pre-flight weather briefing.

01:18:35 UTC

KVPZ METAR
Porter County Regional Airport
Valparaiso, Indiana, USA
Current

23 mins ago

KVPZ 210056Z AUTO 15007KT 10SM CLR 07/02 A3017 RMK AO2 SLP222 T00670017
Observed
Nov-21 @ 00:56 UTC
Wind
  • 150° at 7 KTS
Visibility
10 SM
Flight Rules
VFR
Cloud Levels
  • Clear skies
Temperature
C / 45°F
Dewpoint
C / 36°F
Humidity
71%
Altimeter
30.17" Hg
Pressure
1021.72 hPa
Previous

1 hour ago

KVPZ 202356Z AUTO 14006KT 10SM CLR 08/02 A3017 RMK AO2 SLP222 T00780022 10100 20072 55000
Observed
Nov-20 @ 23:56 UTC
Wind
  • 140° at 6 KTS
Visibility
10 SM
Flight Rules
VFR
Cloud Levels
  • Clear skies
Temperature
C / 46°F
Dewpoint
C / 36°F
Humidity
66%
Altimeter
30.17" Hg
Pressure
1021.72 hPa
Previous

2 hours ago

KVPZ 202256Z AUTO 16005KT 10SM CLR 08/02 A3017 RMK AO2 SLP221 T00780022
Observed
Nov-20 @ 22:56 UTC
Wind
  • 160° at 5 KTS
Visibility
10 SM
Flight Rules
VFR
Cloud Levels
  • Clear skies
Temperature
C / 46°F
Dewpoint
C / 36°F
Humidity
66%
Altimeter
30.17" Hg
Pressure
1021.72 hPa